Time;durP1;ratioP1;P1;durP2;ratioP2;P2;SDS_P1;SDS_P2;PMS_P1;PMS_P2;Temp;Humidity;BMP_temperature;BMP_pressure;BME280_temperature;BME280_humidity;BME280_pressure;Samples;Min_cycle;Max_cycle;Signal;HPM_P1;HPM_P2
2021/12/07 00:02:23;;;;;;;20.38;14.13;;;102.60;2227.20;;;;;;5029874;28;20032;-63
2021/12/07 00:04:49;;;;;;;21.52;13.73;;;102.50;2227.20;;;;;;5029980;28;20121;-63
2021/12/07 00:07:15;;;;;;;31.73;19.77;;;102.60;2227.20;;;;;;5029884;28;20026;-63
2021/12/07 00:09:44;;;;;;;19.48;13.40;;;102.70;2227.20;;;;;;5029957;28;20025;-63
2021/12/07 00:12:10;;;;;;;144.65;85.05;;;102.60;2227.20;;;;;;5029906;28;20170;-62
2021/12/07 00:14:41;;;;;;;26.70;18.77;;;102.60;2227.20;;;;;;5029933;28;20578;-63
2021/12/07 00:17:08;;;;;;;19.30;13.27;;;102.50;2227.20;;;;;;5029825;28;20148;-63
2021/12/07 00:19:34;;;;;;;84.55;48.42;;;102.50;2227.20;;;;;;5029865;28;20037;-67
2021/12/07 00:22:02;;;;;;;18.58;12.55;;;102.40;2227.20;;;;;;5029567;28;20384;-58
2021/12/07 00:24:28;;;;;;;20.83;12.43;;;102.60;2227.20;;;;;;5029684;28;20531;-58
2021/12/07 00:26:54;;;;;;;43.42;24.80;;;102.60;2227.20;;;;;;5029879;28;20022;-57
2021/12/07 00:29:20;;;;;;;18.65;12.88;;;102.60;2227.20;;;;;;5021780;28;20037;-57
2021/12/07 00:31:56;;;;;;;22.98;15.05;;;102.60;2227.20;;;;;;5019063;28;20068;-67
2021/12/07 00:36:50;;;;;;;47.13;25.25;;;102.60;2227.20;;;;;;5021158;28;20413;-60
2021/12/07 00:39:21;;;;;;;71.25;38.25;;;102.50;2227.20;;;;;;5013791;28;20026;-60
2021/12/07 00:41:48;;;;;;;18.33;13.63;;;102.60;2227.20;;;;;;5013923;28;20431;-64
2021/12/07 00:44:15;;;;;;;24.95;16.50;;;102.50;2227.20;;;;;;5013664;28;20033;-65
2021/12/07 00:46:41;;;;;;;22.10;14.77;;;102.50;2227.20;;;;;;5013515;28;20026;-66
2021/12/07 00:49:06;;;;;;;22.42;15.45;;;102.50;2227.20;;;;;;5013445;28;20026;-65
2021/12/07 00:51:32;;;;;;;39.30;25.00;;;102.60;2227.20;;;;;;5013351;28;20129;-67
2021/12/07 00:53:58;;;;;;;40.53;23.15;;;102.50;2227.20;;;;;;5013355;28;20029;-66
2021/12/07 00:56:24;;;;;;;51.72;29.70;;;102.60;2227.20;;;;;;5013401;28;20041;-59
2021/12/07 00:58:51;;;;;;;23.00;15.38;;;102.70;2227.20;;;;;;5013036;28;20422;-63
2021/12/07 01:01:19;;;;;;;21.52;11.40;;;102.60;2227.20;;;;;;5013414;28;20156;-62
2021/12/07 01:03:45;;;;;;;30.67;18.02;;;102.50;2227.20;;;;;;5013295;28;20087;-58
2021/12/07 01:06:28;;;;;;;17.33;11.60;;;102.50;2227.20;;;;;;5013066;28;20026;-57
2021/12/07 01:25:16;;;;;;;62.20;34.78;;;77.50;2227.20;;;;;;5013147;28;20111;-64
2021/12/07 01:27:44;;;;;;;28.38;16.73;;;77.60;2227.20;;;;;;5012561;28;20532;-64
2021/12/07 01:30:18;;;;;;;22.23;14.95;;;102.40;2227.20;;;;;;5012337;28;20048;-58
2021/12/07 01:40:57;;;;;;;77.63;38.88;;;102.40;2227.20;;;;;;4971615;28;20066;-59
2021/12/07 02:01:52;;;;;;;59.55;33.65;;;77.70;2227.20;;;;;;4971217;28;20081;-57
2021/12/07 02:04:18;;;;;;;52.55;25.23;;;77.50;2227.20;;;;;;4971016;28;20027;-65
2021/12/07 02:06:44;;;;;;;27.23;15.23;;;77.50;2227.20;;;;;;4970933;28;20436;-64
2021/12/07 02:09:11;;;;;;;33.65;18.48;;;77.70;2227.20;;;;;;4970570;28;20037;-62
2021/12/07 02:11:47;;;;;;;38.30;22.38;;;102.40;2227.20;;;;;;4975967;28;20042;-64
2021/12/07 02:14:17;;;;;;;31.80;19.02;;;102.40;2227.20;;;;;;5011775;28;20030;-65
2021/12/07 02:16:55;;;;;;;39.67;21.27;;;77.70;2227.20;;;;;;5011672;28;20096;-61
2021/12/07 02:19:22;;;;;;;28.88;16.08;;;77.70;2227.20;;;;;;5011814;28;20392;-64
2021/12/07 02:21:49;;;;;;;22.00;13.60;;;77.70;2227.20;;;;;;5011671;28;20026;-60
2021/12/07 02:24:15;;;;;;;20.98;13.18;;;77.60;2227.20;;;;;;5010807;28;20050;-63
2021/12/07 02:26:41;;;;;;;150.05;79.28;;;77.60;2227.20;;;;;;5010753;28;20100;-63
2021/12/07 02:29:07;;;;;;;41.35;23.23;;;77.50;2227.20;;;;;;5010650;28;20468;-64
2021/12/07 02:31:33;;;;;;;42.13;24.27;;;77.50;2227.20;;;;;;5010775;28;20121;-64
2021/12/07 02:33:59;;;;;;;72.95;43.03;;;77.60;2227.20;;;;;;5010639;28;20358;-65
2021/12/07 02:36:25;;;;;;;28.98;18.42;;;77.50;2227.20;;;;;;5010642;28;20056;-66
2021/12/07 02:38:51;;;;;;;29.20;18.35;;;77.60;2227.20;;;;;;5010480;28;20407;-65
2021/12/07 02:41:17;;;;;;;25.75;17.27;;;77.60;2227.20;;;;;;5010790;28;20026;-63
2021/12/07 02:43:44;;;;;;;60.65;30.30;;;77.60;2227.20;;;;;;5010589;28;20084;-60
2021/12/07 02:46:10;;;;;;;105.95;50.88;;;77.70;2227.20;;;;;;5010318;28;20503;-63
2021/12/07 02:48:37;;;;;;;20.88;13.63;;;77.60;2227.20;;;;;;5010489;28;20117;-63
2021/12/07 02:51:03;;;;;;;22.05;14.30;;;77.60;2227.20;;;;;;5010119;28;20037;-58
2021/12/07 02:53:32;;;;;;;24.83;18.60;;;77.60;2227.20;;;;;;5010438;28;20026;-63
2021/12/07 02:55:59;;;;;;;32.72;20.17;;;77.60;2227.20;;;;;;5010033;28;20033;-62
2021/12/07 02:58:25;;;;;;;23.23;15.48;;;77.70;2227.20;;;;;;5010395;28;20022;-61
2021/12/07 03:01:00;;;;;;;23.38;15.07;;;102.40;2227.20;;;;;;5010164;28;20040;-65
2021/12/07 03:03:29;;;;;;;21.10;14.27;;;77.70;2227.20;;;;;;5010403;28;20030;-66
2021/12/07 03:27:23;;;;;;;21.65;13.60;;;77.50;2227.20;;;;;;5010550;28;20052;-56
2021/12/07 03:29:49;;;;;;;19.42;12.27;;;77.50;2227.20;;;;;;5010787;28;20084;-64
2021/12/07 03:32:15;;;;;;;20.48;12.60;;;77.40;2227.20;;;;;;5010673;28;20037;-65
2021/12/07 03:34:41;;;;;;;19.23;11.40;;;77.50;2227.20;;;;;;5010400;28;20029;-65
2021/12/07 03:37:06;;;;;;;20.40;12.65;;;77.40;2227.20;;;;;;5010534;28;20034;-66
2021/12/07 03:39:32;;;;;;;19.83;13.05;;;77.50;2227.20;;;;;;5010109;28;20441;-66
2021/12/07 03:41:58;;;;;;;20.23;12.77;;;77.60;2227.20;;;;;;5010839;28;20444;-67
2021/12/07 03:44:24;;;;;;;18.77;12.60;;;77.60;2227.20;;;;;;5010618;28;20077;-64
2021/12/07 03:46:50;;;;;;;21.35;11.70;;;77.60;2227.20;;;;;;5010396;28;20542;-67
2021/12/07 03:49:15;;;;;;;19.83;11.82;;;77.40;2227.20;;;;;;5010450;28;20022;-68
2021/12/07 03:51:41;;;;;;;19.38;11.75;;;77.40;2227.20;;;;;;5010164;28;20420;-64
2021/12/07 03:54:07;;;;;;;18.60;12.45;;;77.50;2227.20;;;;;;5010222;28;20041;-65
2021/12/07 03:56:33;;;;;;;19.13;12.07;;;77.40;2227.20;;;;;;5010346;28;20026;-62
2021/12/07 03:58:59;;;;;;;25.10;15.38;;;77.40;2227.20;;;;;;5010316;28;20018;-68
2021/12/07 04:01:25;;;;;;;17.92;12.57;;;77.40;2227.20;;;;;;5010362;28;20026;-65
2021/12/07 04:03:53;;;;;;;50.53;42.90;;;77.30;2227.20;;;;;;5010206;28;20040;-65
2021/12/07 04:06:20;;;;;;;23.02;14.57;;;77.20;2227.20;;;;;;5010130;28;20022;-61
2021/12/07 04:08:46;;;;;;;22.30;14.75;;;77.30;2227.20;;;;;;5013082;28;20115;-60
2021/12/07 04:11:13;;;;;;;20.88;13.38;;;77.20;2227.20;;;;;;5014438;28;20042;-66
2021/12/07 04:13:40;;;;;;;21.77;17.65;;;77.20;2227.20;;;;;;5013983;28;20030;-57
2021/12/07 04:16:08;;;;;;;25.80;15.52;;;77.40;2227.20;;;;;;5014113;28;20029;-66
2021/12/07 04:18:34;;;;;;;80.70;46.58;;;77.20;2227.20;;;;;;5014249;28;20026;-65
2021/12/07 04:21:02;;;;;;;24.23;14.40;;;77.30;2227.20;;;;;;5014002;28;20133;-63
2021/12/07 04:23:29;;;;;;;21.20;17.58;;;77.20;2227.20;;;;;;5013687;28;20054;-62
2021/12/07 04:25:55;;;;;;;26.60;18.15;;;77.20;2227.20;;;;;;5014041;28;20113;-64
2021/12/07 04:28:21;;;;;;;21.80;13.38;;;77.30;2227.20;;;;;;5013798;28;20068;-65
2021/12/07 04:30:46;;;;;;;21.00;12.95;;;77.30;2227.20;;;;;;5013980;28;20445;-65
2021/12/07 04:33:13;;;;;;;19.45;13.10;;;77.20;2227.20;;;;;;5013752;28;20108;-61
2021/12/07 04:35:44;;;;;;;20.90;13.32;;;77.20;2227.20;;;;;;5013630;28;20034;-61
2021/12/07 04:38:10;;;;;;;21.08;13.60;;;77.00;2227.20;;;;;;5013411;28;20026;-67
2021/12/07 04:40:36;;;;;;;22.60;13.00;;;77.10;2227.20;;;;;;5013674;28;20036;-60
2021/12/07 04:43:03;;;;;;;26.42;20.10;;;77.20;2227.20;;;;;;5013670;28;20117;-67
2021/12/07 04:45:46;;;;;;;24.02;15.90;;;77.00;2227.20;;;;;;5013636;28;20026;-68
2021/12/07 04:59:04;;;;;;;20.83;14.35;;;77.20;2227.20;;;;;;5013565;28;20076;-61
2021/12/07 05:01:32;;;;;;;23.58;13.73;;;77.20;2227.20;;;;;;5013428;28;20022;-65
2021/12/07 05:04:06;;;;;;;20.80;12.73;;;77.20;2227.20;;;;;;5013639;28;20061;-62
2021/12/07 05:06:35;;;;;;;21.33;13.05;;;77.20;2227.20;;;;;;5013141;28;20392;-71
2021/12/07 05:09:21;;;;;;;18.08;11.90;;;77.20;2227.20;;;;;;5012933;28;20053;-66
2021/12/07 05:11:52;;;;;;;24.38;13.52;;;77.20;2227.20;;;;;;5012923;28;20049;-67
2021/12/07 05:14:27;;;;;;;21.52;12.70;;;77.10;2227.20;;;;;;5012945;28;20030;-68
2021/12/07 05:38:37;;;;;;;23.33;13.80;;;77.10;2227.20;;;;;;5012664;28;20447;-58
2021/12/07 05:41:06;;;;;;;21.48;14.45;;;77.10;2227.20;;;;;;5012480;28;20030;-61
2021/12/07 05:43:32;;;;;;;40.95;35.70;;;77.10;2227.20;;;;;;5012267;28;20022;-59
2021/12/07 05:45:58;;;;;;;28.52;18.65;;;77.10;2227.20;;;;;;5012696;28;20076;-59
2021/12/07 05:48:24;;;;;;;25.17;13.68;;;77.20;2227.20;;;;;;5012593;28;20373;-60
2021/12/07 05:50:50;;;;;;;22.30;16.02;;;77.20;2227.20;;;;;;5012208;28;20045;-59
2021/12/07 05:53:16;;;;;;;22.15;14.48;;;77.20;2227.20;;;;;;5012000;28;20484;-59
2021/12/07 05:55:42;;;;;;;22.02;13.07;;;77.30;2227.20;;;;;;5011998;28;20125;-62
2021/12/07 05:58:12;;;;;;;24.88;18.10;;;77.20;2227.20;;;;;;5012522;28;20426;-59
2021/12/07 06:00:41;;;;;;;24.98;15.80;;;77.20;2227.20;;;;;;5012491;28;20037;-59
2021/12/07 06:03:09;;;;;;;25.08;17.30;;;77.20;2227.20;;;;;;5012244;28;20026;-63
2021/12/07 06:05:37;;;;;;;22.92;12.38;;;77.10;2227.20;;;;;;5012033;28;20029;-62
2021/12/07 06:08:03;;;;;;;26.60;15.00;;;77.20;2227.20;;;;;;5011929;28;20057;-57
2021/12/07 06:10:30;;;;;;;23.70;17.40;;;77.20;2227.20;;;;;;4993786;28;20080;-57
2021/12/07 06:12:56;;;;;;;23.60;15.02;;;77.30;2227.20;;;;;;5012176;28;20075;-60
2021/12/07 06:15:23;;;;;;;23.92;15.38;;;77.20;2227.20;;;;;;5011714;28;20042;-57
2021/12/07 06:17:51;;;;;;;25.58;16.05;;;77.20;2227.20;;;;;;5011586;28;20030;-58
2021/12/07 06:20:17;;;;;;;20.77;10.93;;;77.30;2227.20;;;;;;5011898;28;20033;-61
2021/12/07 06:22:43;;;;;;;18.50;11.10;;;77.20;2227.20;;;;;;5011489;28;20053;-60
2021/12/07 06:25:10;;;;;;;23.85;14.77;;;77.20;2227.20;;;;;;5011432;28;20038;-62
2021/12/07 06:27:38;;;;;;;20.60;13.07;;;77.00;2227.20;;;;;;5011754;28;20474;-61
2021/12/07 06:30:05;;;;;;;22.40;13.68;;;77.10;2227.20;;;;;;5011025;28;20052;-60
2021/12/07 06:32:31;;;;;;;21.08;12.13;;;77.10;2227.20;;;;;;5011537;28;20100;-58
2021/12/07 06:34:57;;;;;;;22.60;12.60;;;77.10;2227.20;;;;;;5011552;28;20453;-61
2021/12/07 06:37:23;;;;;;;28.70;15.10;;;77.20;2227.20;;;;;;5011288;28;20034;-57
2021/12/07 06:39:48;;;;;;;48.72;28.95;;;77.20;2227.20;;;;;;5011128;28;20391;-55
2021/12/07 06:42:14;;;;;;;25.27;16.23;;;77.10;2227.20;;;;;;5011369;28;20026;-60
2021/12/07 06:44:40;;;;;;;27.92;16.10;;;77.10;2227.20;;;;;;5011438;28;20065;-58
2021/12/07 06:47:06;;;;;;;26.92;18.50;;;77.00;2227.20;;;;;;5011359;28;20022;-56
2021/12/07 06:49:32;;;;;;;26.13;17.25;;;77.10;2227.20;;;;;;5011134;28;20088;-60
2021/12/07 06:51:58;;;;;;;23.92;15.13;;;77.00;2227.20;;;;;;5011414;28;20037;-60
2021/12/07 06:54:25;;;;;;;29.05;18.23;;;77.00;2227.20;;;;;;5011154;28;20034;-56
2021/12/07 06:56:52;;;;;;;25.92;15.63;;;77.00;2227.20;;;;;;5011039;28;20033;-58
2021/12/07 06:59:19;;;;;;;25.80;18.13;;;77.00;2227.20;;;;;;5011034;28;20469;-57
2021/12/07 07:01:45;;;;;;;52.78;34.88;;;77.00;2227.20;;;;;;5011307;28;20427;-55
2021/12/07 07:04:12;;;;;;;53.53;34.30;;;77.10;2227.20;;;;;;5010901;28;20140;-57
2021/12/07 07:06:38;;;;;;;25.70;16.77;;;77.00;2227.20;;;;;;5010862;28;20030;-58
2021/12/07 07:09:05;;;;;;;29.15;17.20;;;77.00;2227.20;;;;;;5010899;28;20083;-58
2021/12/07 07:11:31;;;;;;;26.52;16.08;;;76.90;2227.20;;;;;;5010625;28;20042;-60
2021/12/07 07:13:58;;;;;;;39.30;22.38;;;76.90;2227.20;;;;;;5011054;28;20025;-55
2021/12/07 07:16:24;;;;;;;29.92;20.88;;;77.00;2227.20;;;;;;5011125;28;20030;-60
2021/12/07 07:18:50;;;;;;;29.58;16.40;;;77.00;2227.20;;;;;;5010576;28;20058;-56
2021/12/07 07:21:16;;;;;;;29.02;18.00;;;77.10;2227.20;;;;;;5010778;28;20088;-61
2021/12/07 07:23:42;;;;;;;30.55;18.67;;;77.20;2227.20;;;;;;5010415;28;20061;-59
2021/12/07 07:26:08;;;;;;;23.52;14.80;;;77.20;2227.20;;;;;;5010484;28;20026;-55
2021/12/07 07:28:35;;;;;;;19.90;13.02;;;77.20;2227.20;;;;;;5010716;28;20113;-60
2021/12/07 07:31:03;;;;;;;25.30;15.00;;;77.20;2227.20;;;;;;5010608;28;20038;-57
2021/12/07 07:33:29;;;;;;;23.73;15.90;;;77.20;2227.20;;;;;;5010593;28;20041;-61
2021/12/07 07:35:55;;;;;;;48.65;31.20;;;77.10;2227.20;;;;;;5010632;28;20034;-61
2021/12/07 07:38:21;;;;;;;21.80;14.48;;;77.20;2227.20;;;;;;5010466;28;20025;-55
2021/12/07 07:40:47;;;;;;;24.00;13.52;;;77.20;2227.20;;;;;;5010470;28;20040;-62
2021/12/07 07:43:16;;;;;;;27.73;17.55;;;77.20;2227.20;;;;;;5010437;28;20033;-58
2021/12/07 07:45:46;;;;;;;27.92;14.80;;;77.20;2227.20;;;;;;5010567;28;20435;-57
2021/12/07 07:48:12;;;;;;;23.40;14.57;;;77.30;2227.20;;;;;;5010258;28;20025;-62
2021/12/07 07:50:38;;;;;;;22.98;15.13;;;77.40;2227.20;;;;;;5010196;28;20495;-54
2021/12/07 07:53:06;;;;;;;20.38;12.45;;;77.40;2227.20;;;;;;5010339;28;20040;-58
2021/12/07 07:55:33;;;;;;;27.63;19.63;;;77.30;2227.20;;;;;;5010108;28;20113;-60
2021/12/07 07:57:58;;;;;;;25.38;15.50;;;77.20;2227.20;;;;;;5010452;28;20021;-59
2021/12/07 08:00:24;;;;;;;24.73;13.23;;;77.20;2227.20;;;;;;5010587;28;20034;-55
2021/12/07 08:02:50;;;;;;;32.13;19.60;;;77.00;2227.20;;;;;;5009924;28;20546;-54
2021/12/07 08:05:16;;;;;;;30.85;18.85;;;77.00;2227.20;;;;;;5010372;28;20132;-54
2021/12/07 08:07:47;;;;;;;28.92;16.17;;;77.10;2227.20;;;;;;5010056;28;20564;-56
2021/12/07 08:10:15;;;;;;;24.52;16.17;;;77.10;2227.20;;;;;;5009861;28;20523;-54
2021/12/07 08:12:40;;;;;;;23.63;13.57;;;77.10;2227.20;;;;;;5010133;28;20076;-54
2021/12/07 08:15:07;;;;;;;24.15;14.32;;;77.30;2227.20;;;;;;5010166;28;20030;-62
2021/12/07 08:17:33;;;;;;;31.45;20.33;;;77.40;2227.20;;;;;;5010104;28;20036;-54
2021/12/07 08:19:59;;;;;;;24.08;14.27;;;77.30;2227.20;;;;;;5010155;28;20026;-54
2021/12/07 08:22:25;;;;;;;22.33;14.57;;;77.30;2227.20;;;;;;5010050;28;20048;-57
2021/12/07 08:24:50;;;;;;;19.52;13.20;;;77.20;2227.20;;;;;;5009991;28;20030;-60
2021/12/07 08:27:16;;;;;;;25.27;15.45;;;77.20;2227.20;;;;;;5010096;28;20061;-61
2021/12/07 08:29:42;;;;;;;33.40;22.08;;;77.10;2227.20;;;;;;5010067;28;20026;-55
2021/12/07 08:32:08;;;;;;;27.30;17.88;;;77.20;2227.20;;;;;;5009898;28;20037;-55
2021/12/07 08:34:34;;;;;;;19.90;14.40;;;77.10;2227.20;;;;;;5010192;28;20464;-55
2021/12/07 08:37:00;;;;;;;23.77;14.45;;;77.00;2227.20;;;;;;5009927;28;20480;-54
2021/12/07 08:39:25;;;;;;;22.27;12.23;;;77.10;2227.20;;;;;;5010040;28;20026;-56
2021/12/07 08:41:51;;;;;;;22.20;14.40;;;77.20;2227.20;;;;;;5009671;28;20042;-54
2021/12/07 08:44:17;;;;;;;17.63;11.60;;;77.20;2227.20;;;;;;5010054;28;20069;-54
2021/12/07 08:46:43;;;;;;;31.00;18.70;;;77.40;2227.20;;;;;;5009595;28;20034;-54
2021/12/07 08:49:09;;;;;;;28.30;18.23;;;77.20;2227.20;;;;;;5009857;28;20030;-55
2021/12/07 08:51:38;;;;;;;19.45;13.55;;;77.10;2227.20;;;;;;5009936;28;20092;-55
2021/12/07 08:54:23;;;;;;;21.90;14.65;;;77.10;2227.20;;;;;;5011461;28;20032;-54
2021/12/07 08:59:39;;;;;;;21.35;13.55;;;77.20;2227.20;;;;;;5013528;28;20032;-60
2021/12/07 09:02:05;;;;;;;23.42;15.80;;;77.10;2227.20;;;;;;5013269;28;20037;-58
2021/12/07 09:04:31;;;;;;;21.50;12.60;;;77.00;2227.20;;;;;;5013073;28;20468;-54
2021/12/07 09:06:57;;;;;;;27.92;17.92;;;77.10;2227.20;;;;;;5013354;28;20065;-55
2021/12/07 09:09:23;;;;;;;17.40;12.15;;;77.20;2227.20;;;;;;5012807;28;20036;-56
2021/12/07 09:11:49;;;;;;;24.58;14.63;;;77.20;2227.20;;;;;;5012955;28;20037;-55
2021/12/07 09:14:18;;;;;;;25.40;15.48;;;77.20;2227.20;;;;;;5013168;28;20029;-55
2021/12/07 09:16:44;;;;;;;20.38;12.25;;;77.00;2227.20;;;;;;5013202;28;20069;-56
2021/12/07 09:19:11;;;;;;;24.17;14.98;;;77.10;2227.20;;;;;;5012865;28;20484;-57
2021/12/07 09:21:37;;;;;;;27.77;15.38;;;77.10;2227.20;;;;;;5012852;28;20026;-54
2021/12/07 09:24:02;;;;;;;23.17;13.98;;;77.20;2227.20;;;;;;5012560;28;20461;-55
2021/12/07 09:26:29;;;;;;;22.92;14.18;;;77.20;2227.20;;;;;;5012892;28;20030;-56
2021/12/07 09:28:55;;;;;;;19.50;12.52;;;77.30;2227.20;;;;;;5012937;28;20046;-55
2021/12/07 09:31:22;;;;;;;22.85;15.65;;;77.20;2227.20;;;;;;5012463;28;20480;-54
2021/12/07 09:33:48;;;;;;;21.33;13.45;;;77.20;2227.20;;;;;;5012643;28;20299;-54
2021/12/07 09:36:15;;;;;;;27.67;17.70;;;77.30;2227.20;;;;;;5021915;28;20411;-59
2021/12/07 09:38:41;;;;;;;22.20;14.35;;;77.30;2227.20;;;;;;5019948;28;20423;-53
2021/12/07 09:41:09;;;;;;;33.67;19.38;;;77.40;2227.20;;;;;;5021410;28;20380;-56
2021/12/07 09:43:36;;;;;;;25.55;15.95;;;77.40;2227.20;;;;;;5021811;28;20025;-57
2021/12/07 09:46:04;;;;;;;25.70;16.20;;;77.40;2227.20;;;;;;5019780;28;20018;-54
2021/12/07 09:48:30;;;;;;;21.60;14.45;;;77.30;2227.20;;;;;;5021027;28;20100;-56
2021/12/07 09:50:56;;;;;;;36.92;20.38;;;77.30;2227.20;;;;;;5021569;28;20120;-56
2021/12/07 09:53:24;;;;;;;22.25;13.57;;;77.30;2227.20;;;;;;5019533;28;20442;-55
2021/12/07 09:55:51;;;;;;;22.83;14.13;;;77.30;2227.20;;;;;;5020650;28;20029;-54
2021/12/07 09:58:18;;;;;;;20.10;13.38;;;77.10;2227.20;;;;;;5021975;28;20017;-55
2021/12/07 10:00:45;;;;;;;24.83;15.20;;;77.10;2227.20;;;;;;5019931;28;20022;-58
2021/12/07 10:03:11;;;;;;;19.90;12.88;;;77.20;2227.20;;;;;;5020548;28;20452;-55
2021/12/07 10:05:40;;;;;;;23.88;14.25;;;77.20;2227.20;;;;;;5020266;28;20435;-55
2021/12/07 10:08:07;;;;;;;23.17;13.02;;;77.10;2227.20;;;;;;5020140;28;20104;-55
2021/12/07 10:10:42;;;;;;;26.75;14.63;;;77.30;2227.20;;;;;;5020074;28;20041;-60
2021/12/07 10:13:10;;;;;;;32.47;21.65;;;77.10;2227.20;;;;;;5020303;28;20034;-59
2021/12/07 10:15:36;;;;;;;24.75;15.25;;;77.10;2227.20;;;;;;5019746;28;20542;-54
2021/12/07 10:18:13;;;;;;;48.65;28.40;;;77.20;2227.20;;;;;;5021354;28;20033;-55
2021/12/07 10:20:49;;;;;;;32.22;17.95;;;77.40;2227.20;;;;;;5021089;28;20022;-59
2021/12/07 10:23:18;;;;;;;51.88;34.88;;;77.40;2227.20;;;;;;5020847;28;20120;-55
2021/12/07 10:25:56;;;;;;;19.60;11.63;;;77.20;2227.20;;;;;;5019751;28;20451;-55
2021/12/07 10:28:32;;;;;;;23.88;14.35;;;77.20;2227.20;;;;;;5019066;28;20037;-55
2021/12/07 10:31:07;;;;;;;25.85;16.15;;;77.10;2227.20;;;;;;5019079;28;20140;-59
2021/12/07 10:33:43;;;;;;;24.67;13.75;;;77.00;2227.20;;;;;;5028620;28;20039;-55
2021/12/07 10:36:10;;;;;;;24.00;15.35;;;77.00;2227.20;;;;;;5019859;28;20100;-54
2021/12/07 10:38:37;;;;;;;22.23;15.02;;;77.10;2227.20;;;;;;5020725;28;20033;-55
2021/12/07 10:41:09;;;;;;;24.63;15.45;;;77.10;2227.20;;;;;;5018647;28;20038;-55
2021/12/07 10:43:50;;;;;;;27.55;15.05;;;77.00;2227.20;;;;;;5019413;28;20494;-55
2021/12/07 10:46:34;;;;;;;20.98;13.55;;;77.10;2227.20;;;;;;5020610;28;20528;-56
2021/12/07 10:49:23;;;;;;;19.85;12.95;;;77.10;2227.20;;;;;;5013536;28;20022;-57
2021/12/07 10:52:04;;;;;;;25.25;14.98;;;77.10;2227.20;;;;;;5011037;28;20034;-61
2021/12/07 10:54:40;;;;;;;19.25;12.93;;;77.00;2227.20;;;;;;5011340;28;20034;-54
2021/12/07 10:57:10;;;;;;;21.88;13.93;;;77.20;2227.20;;;;;;5011351;28;20064;-54
2021/12/07 10:59:37;;;;;;;23.13;12.98;;;77.10;2227.20;;;;;;5011286;28;20372;-57
2021/12/07 11:02:17;;;;;;;20.63;14.05;;;77.10;2227.20;;;;;;5010984;28;20044;-55
2021/12/07 11:04:44;;;;;;;22.48;15.95;;;77.20;2227.20;;;;;;5010894;28;20026;-53
2021/12/07 11:07:25;;;;;;;22.75;15.30;;;77.20;2227.20;;;;;;5010767;28;20037;-54
2021/12/07 11:10:37;;;;;;;38.50;25.75;;;77.20;2227.20;;;;;;5010854;28;20030;-54
2021/12/07 11:13:18;;;;;;;21.33;14.45;;;77.20;2227.20;;;;;;5008807;28;20045;-52
2021/12/07 11:15:53;;;;;;;24.73;17.02;;;77.20;2227.20;;;;;;5010829;28;20026;-54
2021/12/07 11:18:25;;;;;;;30.33;19.50;;;77.20;2227.20;;;;;;5010693;28;20025;-52
2021/12/07 11:20:53;;;;;;;23.83;14.05;;;77.20;2227.20;;;;;;5010650;28;20484;-53
2021/12/07 11:23:26;;;;;;;45.70;30.42;;;77.10;2227.20;;;;;;5010265;28;20107;-54
2021/12/07 11:31:36;;;;;;;21.92;14.65;;;77.40;2227.20;;;;;;5010598;28;20109;-55
2021/12/07 11:34:13;;;;;;;31.58;21.80;;;77.30;2227.20;;;;;;5010316;28;20054;-56
2021/12/07 11:36:45;;;;;;;22.38;14.27;;;77.40;2227.20;;;;;;5010498;28;20566;-55
2021/12/07 11:39:20;;;;;;;16.60;10.93;;;77.50;2227.20;;;;;;5010458;28;20022;-54
2021/12/07 11:41:48;;;;;;;21.70;16.27;;;77.20;2227.20;;;;;;5010398;28;20053;-53
2021/12/07 11:44:14;;;;;;;141.57;101.05;;;77.20;2227.20;;;;;;5010217;28;20028;-60
2021/12/07 11:46:48;;;;;;;22.50;14.68;;;77.30;2227.20;;;;;;5010155;28;20025;-56
2021/12/07 11:49:27;;;;;;;23.50;14.43;;;77.20;2227.20;;;;;;5010578;28;20117;-53
2021/12/07 11:51:56;;;;;;;22.45;13.65;;;77.40;2227.20;;;;;;5010154;28;20069;-57
2021/12/07 11:54:32;;;;;;;18.13;12.48;;;77.40;2227.20;;;;;;5010148;28;20117;-59
2021/12/07 11:56:59;;;;;;;22.58;14.15;;;77.40;2227.20;;;;;;5010190;28;20451;-57
2021/12/07 11:59:25;;;;;;;19.27;12.05;;;77.40;2227.20;;;;;;5010486;28;20029;-52
2021/12/07 12:01:53;;;;;;;29.88;18.75;;;77.30;2227.20;;;;;;5010258;28;20034;-55
2021/12/07 12:04:20;;;;;;;22.00;11.40;;;77.40;2227.20;;;;;;5010075;28;20030;-53
2021/12/07 12:06:56;;;;;;;21.17;14.25;;;77.40;2227.20;;;;;;5010290;28;20030;-54
2021/12/07 12:09:24;;;;;;;29.85;17.88;;;77.40;2227.20;;;;;;5009944;28;20064;-53
2021/12/07 12:12:11;;;;;;;22.63;14.10;;;77.40;2227.20;;;;;;5009913;28;20468;-57
2021/12/07 12:14:47;;;;;;;22.02;13.32;;;77.40;2227.20;;;;;;5010205;28;20105;-53
2021/12/07 12:17:38;;;;;;;25.40;16.08;;;77.40;2227.20;;;;;;5010163;28;20034;-53
2021/12/07 12:20:28;;;;;;;22.88;13.95;;;77.60;2227.20;;;;;;5009952;28;20026;-56
2021/12/07 12:23:33;;;;;;;35.53;21.30;;;77.60;2227.20;;;;;;5009770;28;20112;-53
2021/12/07 12:26:04;;;;;;;36.50;21.88;;;77.60;2227.20;;;;;;5009964;28;20022;-53
2021/12/07 12:28:34;;;;;;;24.77;12.75;;;77.50;2227.20;;;;;;5010424;28;20026;-56
2021/12/07 12:31:00;;;;;;;25.35;17.10;;;77.60;2227.20;;;;;;5013774;28;20476;-59
2021/12/07 12:33:47;;;;;;;23.33;13.43;;;77.50;2227.20;;;;;;5014042;28;20372;-60
2021/12/07 12:36:13;;;;;;;20.33;13.25;;;77.70;2227.20;;;;;;5013689;28;20042;-59
2021/12/07 12:38:46;;;;;;;17.90;11.70;;;77.70;2227.20;;;;;;5013490;28;20030;-59
2021/12/07 12:41:14;;;;;;;20.95;13.68;;;77.70;2227.20;;;;;;5013368;28;20080;-57
2021/12/07 12:43:59;;;;;;;21.73;13.20;;;77.60;2227.20;;;;;;5013652;28;20057;-58
2021/12/07 12:46:26;;;;;;;26.80;14.60;;;77.70;2227.20;;;;;;5013664;28;20053;-54
2021/12/07 12:48:59;;;;;;;25.48;14.55;;;77.70;2227.20;;;;;;5013620;28;20279;-54
2021/12/07 12:51:30;;;;;;;20.95;13.18;;;77.70;2227.20;;;;;;5013375;28;20041;-55
2021/12/07 12:53:56;;;;;;;21.48;11.73;;;77.70;2227.20;;;;;;5013639;28;20037;-57
2021/12/07 12:56:30;;;;;;;21.95;14.10;;;77.70;2227.20;;;;;;5013255;28;20057;-53
2021/12/07 12:58:58;;;;;;;;;;;77.70;2227.20;;;;;;5013814;28;20469;-53
2021/12/07 13:01:25;;;;;;;35.47;21.35;;;77.60;2227.20;;;;;;5013467;28;19975;-62
2021/12/07 13:03:53;;;;;;;22.40;14.25;;;77.60;2227.20;;;;;;5013145;28;20024;-56
2021/12/07 13:06:22;;;;;;;22.75;12.88;;;102.40;2227.20;;;;;;5013183;28;20032;-61
2021/12/07 13:09:05;;;;;;;20.48;12.73;;;102.40;2227.20;;;;;;5013175;28;20104;-61
2021/12/07 13:11:52;;;;;;;25.95;16.55;;;77.60;2227.20;;;;;;5012934;28;20034;-58
2021/12/07 13:14:24;;;;;;;21.63;12.88;;;77.70;2227.20;;;;;;5011040;28;20100;-53
2021/12/07 13:17:00;;;;;;;21.38;14.27;;;102.40;2227.20;;;;;;5011391;28;20026;-61
2021/12/07 13:19:28;;;;;;;23.52;15.15;;;102.50;2227.20;;;;;;5011519;28;20480;-54
2021/12/07 13:21:55;;;;;;;26.85;15.95;;;102.40;2227.20;;;;;;5011398;28;20025;-53
2021/12/07 13:24:33;;;;;;;21.02;14.02;;;102.50;2227.20;;;;;;5011016;28;20054;-53
2021/12/07 13:26:58;;;;;;;31.80;17.75;;;102.60;2227.20;;;;;;5010670;28;20018;-53
2021/12/07 13:29:26;;;;;;;22.05;14.23;;;102.50;2227.20;;;;;;5011162;28;20033;-53
2021/12/07 13:31:56;;;;;;;25.50;16.40;;;102.40;2227.20;;;;;;5010986;28;20381;-53
2021/12/07 13:34:40;;;;;;;22.80;15.43;;;102.50;2227.20;;;;;;4993095;28;20040;-52
2021/12/07 13:37:11;;;;;;;56.40;35.28;;;102.50;2227.20;;;;;;4993375;28;20660;-58
2021/12/07 13:39:51;;;;;;;59.75;41.03;;;102.50;2227.20;;;;;;5010695;28;20368;-61
2021/12/07 13:42:16;;;;;;;59.00;37.92;;;102.50;2227.20;;;;;;5011054;28;20026;-53
2021/12/07 13:44:54;;;;;;;42.97;33.22;;;102.50;2227.20;;;;;;5010941;28;20037;-61
2021/12/07 13:47:23;;;;;;;37.05;25.58;;;102.50;2227.20;;;;;;5010855;28;20030;-62
2021/12/07 13:50:10;;;;;;;24.33;16.65;;;102.50;2227.20;;;;;;5010963;28;20038;-59
2021/12/07 13:52:41;;;;;;;26.67;18.50;;;102.60;2227.20;;;;;;5009813;28;20060;-53
2021/12/07 13:55:18;;;;;;;27.52;22.45;;;102.60;2227.20;;;;;;5010718;28;20026;-60
2021/12/07 13:57:47;;;;;;;22.15;15.55;;;102.70;2227.20;;;;;;5010867;28;20030;-53
2021/12/07 14:00:32;;;;;;;22.27;14.82;;;102.50;2227.20;;;;;;5010624;28;20040;-53
2021/12/07 14:03:04;;;;;;;22.20;15.35;;;102.70;2227.20;;;;;;5010522;28;20540;-54
2021/12/07 14:05:39;;;;;;;21.30;14.13;;;102.80;2227.20;;;;;;5010239;28;20048;-52